Latest Weather Observations for Broken Hill Airport

IDN60801

Issued at 11:03 am EDT Tuesday 24 October 2017 (issued every 30 minutes, with the page automatically refreshed every 10 minutes)

About weather observations | Map of weather stations | Latest weather observations for NSW | Other Formats
Station Details ID: 047048 Name: BROKEN HILL AIRPORT AWS Lat: -32.00 Lon: 141.47 Height: 281.3 m
Data from the previous 72 hours. | See also: Recent months at Broken Hill Airport
Date/Time
EDT
Temp
°C
App
Temp
°C
Dew
Point
°C
Rel
Hum
%
Delta-T
°C
Wind Press
QNH
hPa
Press
MSL
hPa
Rain since
9am
mm
Dir  Spd
km/h
Gust
km/h
Spd
kts
Gust
kts
24/11:00am 26.2 20.6 1.5 20 11.9 N 20 26 11 14 1017.3 1016.6 0.0
24/10:30am 25.6 20.2 1.0 20 11.7 N 19 28 10 15 1017.3 1016.6 0.0
24/10:00am 24.9 18.9 1.1 21 11.3 N 22 32 12 17 1017.3 1016.6 0.0
24/09:30am 24.1 18.2 1.7 23 10.7 N 22 30 12 16 1017.2 1016.5 0.0
24/09:00am 22.4 17.2 2.5 27 9.5 N 19 30 10 16 1017.2 1016.5 0.0
24/08:30am 20.8 15.8 3.5 32 8.4 NNE 19 24 10 13 1016.9 1016.2 0.0
24/08:00am 18.9 14.0 3.9 37 7.2 NNE 19 24 10 13 1016.9 1016.2 0.0
24/07:30am 17.5 13.4 4.1 41 6.4 NNE 15 17 8 9 1016.8 1016.1 0.0
24/07:00am 16.7 13.0 4.4 44 5.9 NNE 13 15 7 8 1016.8 1016.1 0.0
24/06:30am 16.2 12.0 3.6 43 5.9 NNE 15 17 8 9 1016.6 1015.8 0.0
24/06:00am 17.3 13.2 4.3 42 6.2 NNE 15 20 8 11 1016.6 1015.8 0.0
24/05:30am 17.0 12.9 4.3 43 6.1 NNE 15 17 8 9 1016.3 1015.5 0.0
24/05:00am 17.3 13.2 4.3 42 6.2 NNE 15 19 8 10 1016.3 1015.5 0.0
24/04:30am 17.5 13.4 4.5 42 6.3 NNE 15 19 8 10 1016.1 1015.3 0.0
24/04:00am 17.7 14.1 5.0 43 6.2 NNE 13 15 7 8 1016.2 1015.4 0.0
24/03:30am 17.2 13.8 5.8 47 5.6 NNE 13 13 7 7 1016.3 1015.5 0.0
24/03:00am 15.2 11.2 3.0 44 5.6 NNE 13 13 7 7 1016.4 1015.6 0.0
24/02:30am 17.6 13.1 4.2 41 6.4 NNE 17 20 9 11 1016.4 1015.6 0.0
24/02:00am 18.0 14.4 5.2 43 6.3 NNE 13 15 7 8 1016.9 1016.2 0.0
24/01:30am 16.6 13.4 3.3 41 6.2 NNE 9 11 5 6 1017.3 1016.6 0.0
24/01:00am 18.0 14.4 4.9 42 6.4 NE 13 15 7 8 1017.5 1016.8 0.0
24/12:30am 16.5 12.8 2.2 38 6.5 NE 11 13 6 7 1017.6 1016.9 0.0
24/12:00am 18.4 14.7 4.2 39 6.8 NE 13 15 7 8 1017.7 1017.0 0.0
 
Date/Time
EDT
Temp
°C
App
Temp
°C
Dew
Point
°C
Rel
Hum
%
Delta-T
°C
Wind Press
QNH
hPa
Press
MSL
hPa
Rain since
9am
mm
Dir  Spd
km/h
Gust
km/h
Spd
kts
Gust
kts
23/11:30pm 17.9 13.5 2.6 36 7.1 ENE 15 19 8 10 1017.6 1016.9 0.0
23/11:00pm 19.6 17.0 3.3 34 7.8 E 6 9 3 5 1017.7 1017.0 0.0
23/10:30pm 19.4 17.8 2.7 33 7.9 CALM 0 0 0 0 1017.8 1017.1 0.0
23/10:00pm 20.2 18.7 3.0 32 8.2 CALM 0 0 0 0 1017.6 1016.9 0.0
23/09:30pm 20.6 17.7 2.4 30 8.6 SE 7 9 4 5 1017.3 1016.6 0.0
23/09:00pm 21.2 18.0 3.0 30 8.7 SSE 9 9 5 5 1016.9 1016.2 0.0
23/08:30pm 22.2 18.6 2.8 28 9.3 SSE 11 13 6 7 1016.8 1016.1 0.0
23/08:00pm 23.2 19.3 3.2 27 9.8 S 13 19 7 10 1016.4 1015.6 0.0
23/07:30pm 23.8 21.1 3.7 27 10.0 SSE 7 11 4 6 1016.5 1015.7 0.0
23/07:00pm 24.3 22.5 3.6 26 10.3 SW 2 15 1 8 1016.2 1015.4 0.0
23/06:30pm 25.0 21.9 3.6 25 10.7 S 9 13 5 7 1016.1 1015.3 0.0
23/06:00pm 25.1 21.6 3.7 25 10.7 S 11 17 6 9 1015.8 1015.0 0.0
23/05:30pm 25.1 23.3 3.7 25 10.7 SE 2 9 1 5 1015.6 1014.8 0.0
23/05:00pm 25.1 22.4 3.7 25 10.7 SW 7 19 4 10 1015.7 1014.9 0.0
23/04:30pm 24.4 21.2 3.1 25 10.5 N 9 20 5 11 1015.8 1015.0 0.0
23/04:00pm 24.4 20.9 3.7 26 10.3 SSW 11 17 6 9 1016.1 1015.3 0.0
23/03:30pm 24.4 20.9 3.7 26 10.3 WSW 11 30 6 16 1016.5 1015.7 0.0
23/03:00pm 24.4 21.1 4.7 28 10.0 SSW 11 20 6 11 1017.0 1016.3 0.0
23/02:30pm 23.3 20.0 4.8 30 9.3 S 11 22 6 12 1017.3 1016.6 0.0
23/02:00pm 22.5 19.7 5.0 32 8.8 SSE 9 20 5 11 1017.5 1016.8 0.0
23/01:30pm 22.4 19.4 5.8 34 8.5 SW 11 17 6 9 1017.9 1017.2 0.0
23/01:00pm 21.6 19.0 5.9 36 8.0 SE 9 20 5 11 1018.4 1017.7 0.0
23/12:30pm 21.5 19.0 6.6 38 7.7 ESE 9 19 5 10 1018.6 1017.9 0.0
23/12:00pm 20.6 17.3 6.2 39 7.3 SSE 13 20 7 11 1019.3 1018.5 0.0
23/11:30am 19.9 17.4 6.6 42 6.8 ESE 9 17 5 9 1019.8 1019.1 0.0
23/11:00am 18.9 16.0 6.7 45 6.2 SE 11 20 6 11 1020.1 1019.4 0.0
23/10:30am 18.3 16.1 7.7 50 5.5 SSE 9 15 5 8 1020.3 1019.6 0.0
23/10:00am 17.4 14.4 7.7 53 5.0 SE 13 19 7 10 1020.3 1019.6 0.0
23/09:30am 16.3 13.1 8.3 59 4.1 SSE 15 20 8 11 1020.1 1019.4 0.0
23/09:00am 14.6 11.1 7.4 62 3.6 S 15 19 8 10 1019.9 1019.2 0.0
23/08:30am 13.6 10.1 7.4 66 3.1 S 15 20 8 11 1019.9 1019.2 0.0
23/08:00am 12.8 8.9 7.3 69 2.7 S 17 20 9 11 1019.4 1018.6 0.0
23/07:30am 11.0 8.8 6.0 71 2.4 SSW 7 11 4 6 1019.3 1018.5 0.0
23/07:00am 9.9 7.1 5.3 73 2.1 S 9 11 5 6 1018.9 1018.2 0.0
23/06:30am 9.7 6.8 4.5 70 2.3 SW 9 9 5 5 1018.9 1018.2 0.0
23/06:00am 10.7 8.4 5.5 70 2.4 WSW 7 9 4 5 1018.7 1018.0 0.0
23/05:30am 10.3 7.3 4.0 65 2.8 SW 9 11 5 6 1018.6 1017.9 0.0
23/05:00am 11.6 8.8 5.3 65 2.9 S 9 13 5 7 1018.4 1017.7 0.0
23/04:30am 12.0 8.8 5.0 62 3.3 S 11 15 6 8 1018.4 1017.7 0.0
23/04:00am 12.3 8.7 4.8 60 3.5 S 13 17 7 9 1018.4 1017.7 0.0
23/03:30am 12.8 8.8 4.8 58 3.7 S 15 17 8 9 1018.3 1017.6 0.0
23/03:00am 13.2 8.8 4.9 57 3.9 S 17 20 9 11 1018.2 1017.5 0.0
23/02:30am 13.3 9.2 4.2 54 4.2 S 15 19 8 10 1018.3 1017.6 0.0
23/02:00am 13.7 9.1 3.8 51 4.5 S 17 20 9 11 1018.4 1017.7 0.0
23/01:30am 14.1 9.9 3.6 49 4.8 SSW 15 19 8 10 1018.7 1018.0 0.0
23/01:00am 14.4 10.4 2.9 46 5.2 SSW 13 17 7 9 1018.8 1018.1 0.0
23/12:30am 13.8 11.7 1.5 43 5.4 SSW 2 9 1 5 1018.9 1018.2 0.0
23/12:00am 13.4 11.5 0.4 41 5.5 CALM 0 0 0 0 1018.8 1018.1 0.0
 
Date/Time
EDT
Temp
°C
App
Temp
°C
Dew
Point
°C
Rel
Hum
%
Delta-T
°C
Wind Press
QNH
hPa
Press
MSL
hPa
Rain since
9am
mm
Dir  Spd
km/h
Gust
km/h
Spd
kts
Gust
kts
22/11:30pm 14.4 12.6 1.0 40 5.8 CALM 0 0 0 0 1019.0 1018.3 0.0
22/11:00pm 15.5 13.7 0.9 37 6.4 CALM 0 0 0 0 1019.1 1018.4 0.0
22/10:30pm 15.5 13.6 0.5 36 6.5 CALM 0 0 0 0 1019.0 1018.3 0.0
22/10:00pm 16.3 14.4 0.8 35 6.8 CALM 0 0 0 0 1018.9 1018.2 0.0
22/09:30pm 16.1 12.4 -0.2 33 7.0 SSE 9 13 5 7 1018.9 1018.2 0.0
22/09:00pm 17.4 13.0 0.1 31 7.6 S 13 15 7 8 1018.8 1018.1 0.0
22/08:30pm 18.5 13.0 0.6 30 8.0 S 19 26 10 14 1018.5 1017.8 0.0
22/08:00pm 19.1 12.6 0.2 28 8.4 S 24 30 13 16 1018.3 1017.6 0.0
22/07:30pm 19.7 13.3 0.7 28 8.6 S 24 35 13 19 1017.9 1017.2 0.0
22/07:00pm 20.4 13.5 0.3 26 9.1 S 26 35 14 19 1017.5 1016.8 0.0
22/06:30pm 20.7 14.0 -1.1 23 9.6 S 24 35 13 19 1017.3 1016.6 0.0
22/06:00pm 20.9 14.3 -0.4 24 9.5 SSW 24 33 13 18 1017.2 1016.5 0.0
22/05:30pm 21.2 14.6 -0.1 24 9.6 SSW 24 37 13 20 1017.3 1016.6 0.0
22/05:00pm 21.3 15.1 -0.6 23 9.8 SSW 22 39 12 21 1017.2 1016.5 0.0
22/04:30pm 21.9 14.7 0.4 24 9.9 SSW 28 39 15 21 1017.3 1016.6 0.0
22/04:00pm 21.2 14.8 1.0 26 9.3 SSW 24 33 13 18 1017.5 1016.8 0.0
22/03:30pm 20.2 13.7 0.6 27 8.9 SSW 24 35 13 19 1017.9 1017.2 0.0
22/03:00pm 20.4 13.8 1.8 29 8.7 SSW 26 37 14 20 1018.3 1017.6 0.0
22/02:30pm 19.0 12.1 2.4 33 7.7 SSW 28 41 15 22 1018.7 1018.0 0.0
22/02:00pm 18.7 12.6 2.5 34 7.5 SSW 24 39 13 21 1019.0 1018.3 0.0
22/01:30pm 18.3 11.9 3.4 37 7.1 SSW 26 39 14 21 1019.4 1018.6 0.0
22/01:00pm 17.1 11.1 3.1 39 6.5 S 24 43 13 23 1019.7 1018.9 0.0
22/12:30pm 16.8 11.0 4.2 43 6.0 SSW 24 37 13 20 1020.2 1019.5 0.0
22/12:00pm 16.0 9.2 3.1 42 5.9 S 28 37 15 20 1020.7 1020.0 0.0
22/11:30am 16.0 9.5 4.7 47 5.4 S 28 37 15 20 1021.0 1020.3 0.0
22/11:00am 14.1 8.3 4.4 52 4.5 S 24 33 13 18 1021.0 1020.3 0.0
22/10:30am 14.1 8.4 4.9 54 4.4 S 24 35 13 19 1021.0 1020.3 0.0
22/10:00am 13.1 7.0 4.8 57 3.9 S 26 33 14 18 1021.2 1020.5 0.0
22/09:30am 12.7 6.3 5.4 61 3.4 S 28 35 15 19 1021.4 1020.7 0.0
22/09:00am 11.9 4.8 5.3 64 3.1 S 32 39 17 21 1021.5 1020.8 0.0
22/08:30am 11.2 3.9 5.3 67 2.8 S 33 39 18 21 1021.5 1020.8 0.0
22/08:00am 10.6 3.8 4.9 68 2.6 S 30 41 16 22 1021.1 1020.4 0.0
22/07:30am 9.7 3.6 4.7 71 2.3 S 26 33 14 18 1021.0 1020.3 0.0
22/07:00am 9.1 3.6 4.1 71 2.2 SSW 22 32 12 17 1020.6 1019.9 0.0
22/06:30am 9.2 3.7 4.2 71 2.2 SSW 22 28 12 15 1020.3 1019.6 0.0
22/06:00am 9.5 4.1 4.3 70 2.3 SSW 22 30 12 16 1020.3 1019.6 0.0
22/05:30am 9.8 4.4 4.4 69 2.4 SSW 22 30 12 16 1020.2 1019.5 0.0
22/05:00am 9.8 4.0 4.4 69 2.4 SSW 24 30 13 16 1020.1 1019.4 0.0
22/04:30am 9.9 4.1 4.5 69 2.4 SSW 24 32 13 17 1020.1 1019.4 0.0
22/04:00am 10.5 5.1 4.6 67 2.7 SSW 22 30 12 16 1020.1 1019.4 0.0
22/03:30am 11.1 4.6 4.8 65 2.9 SSW 28 35 15 19 1020.2 1019.5 0.0
22/03:00am 11.6 5.0 4.3 61 3.3 SSW 28 39 15 21 1020.3 1019.6 0.0
22/02:30am 12.6 6.4 4.1 56 3.9 S 26 37 14 20 1020.6 1019.9 0.0
22/02:00am 13.3 6.3 3.9 53 4.3 S 30 39 16 21 1020.6 1019.9 0.0
22/01:30am 14.0 7.9 2.9 47 5.0 SSW 24 33 13 18 1021.0 1020.3 0.0
22/01:00am 14.3 8.4 1.6 42 5.6 S 22 30 12 16 1021.2 1020.5 0.0
22/12:30am 14.7 9.1 1.3 40 5.9 SSW 20 26 11 14 1021.4 1020.7 0.0
22/12:00am 15.0 9.5 0.4 37 6.3 S 19 22 10 12 1021.4 1020.7 0.0
 
Date/Time
EDT
Temp
°C
App
Temp
°C
Dew
Point
°C
Rel
Hum
%
Delta-T
°C
Wind Press
QNH
hPa
Press
MSL
hPa
Rain since
9am
mm
Dir  Spd
km/h
Gust
km/h
Spd
kts
Gust
kts
21/11:30pm 15.9 10.1 0.1 34 6.8 S 20 24 11 13 1021.5 1020.8 0.0
21/11:00pm 16.3 10.5 -0.4 32 7.2 S 20 24 11 13 1021.6 1020.9 0.0
21/10:30pm 16.4 10.7 -0.8 31 7.3 S 19 24 10 13 1021.7 1021.0 0.0
21/10:00pm 16.9 10.9 -1.2 29 7.7 S 20 26 11 14 1021.6 1020.9 0.0
21/09:30pm 17.4 10.6 -1.8 27 8.1 S 24 28 13 15 1021.7 1021.0 0.0
21/09:00pm 18.1 12.0 -2.2 25 8.5 S 20 28 11 15 1021.4 1020.7 0.0
21/08:30pm 18.8 11.9 -2.7 23 9.0 SSW 24 30 13 16 1021.3 1020.6 0.0
21/08:00pm 19.6 11.9 -2.7 22 9.4 S 28 35 15 19 1021.0 1020.3 0.0
21/07:30pm 20.4 12.9 -1.4 23 9.5 S 28 35 15 19 1020.8 1020.1 0.0
21/07:00pm 21.0 13.5 -1.5 22 9.8 SSW 28 37 15 20 1020.8 1020.1 0.0
21/06:30pm 21.8 14.7 -1.5 21 10.3 SSW 26 39 14 21 1020.9 1020.2 0.0
21/06:00pm 21.8 13.8 -2.1 20 10.4 S 30 39 16 21 1020.7 1020.0 0.0
21/05:30pm 22.6 14.3 -1.5 20 10.7 S 32 43 17 23 1020.8 1020.1 0.0
21/05:00pm 22.3 13.9 -2.4 19 10.7 S 32 41 17 22 1021.0 1020.3 0.0
21/04:46pm 23.0 15.3 -3.3 17 11.3 S 28 46 15 25 1021.0 1020.3 0.0
21/04:30pm 22.8 14.8 -2.7 18 11.1 S 30 39 16 21 1021.1 1020.4 0.0
21/04:00pm 22.3 14.4 -1.7 20 10.6 S 30 41 16 22 1021.5 1020.8 0.0
21/03:30pm 21.9 13.8 -3.5 18 10.8 S 30 43 16 23 1021.9 1021.2 0.0
21/03:00pm 21.5 13.2 -1.7 21 10.1 SSW 32 43 17 23 1022.6 1021.9 0.0
21/02:30pm 21.0 12.9 -3.5 19 10.3 S 30 41 16 22 1023.1 1022.4 0.0
21/02:00pm 21.3 13.0 -1.9 21 10.1 S 32 43 17 23 1023.6 1022.9 0.0
21/01:30pm 20.3 12.6 -0.3 25 9.2 S 30 43 16 23 1023.9 1023.2 0.0
21/01:00pm 19.5 12.2 0.0 27 8.7 S 28 46 15 25 1024.2 1023.5 0.0
21/12:30pm 18.4 10.9 1.4 32 7.7 S 30 39 16 21 1024.4 1023.7 0.0
21/12:00pm 17.7 9.4 2.1 35 7.1 S 35 43 19 23 1024.9 1024.2 0.0

Other Formats:

Comma delimited format used in spreadsheet applications
http://www.bom.gov.au/fwo/IDN60801/IDN60801.94691.axf

JavaScript Object Notation format (JSON) in row-major order
http://www.bom.gov.au/fwo/IDN60801/IDN60801.94691.json